Time;durP1;ratioP1;P1;durP2;ratioP2;P2;SDS_P1;SDS_P2;PMS_P1;PMS_P2;Temp;Humidity;BMP_temperature;BMP_pressure;BME280_temperature;BME280_humidity;BME280_pressure;Samples;Min_cycle;Max_cycle;Signal;HPM_P1;HPM_P2
2023/04/15 00:01:44;;;;;;;6.95;2.50;;;;;;;;;;5012326;28;20038;-82
2023/04/15 00:04:10;;;;;;;7.85;2.15;;;;;;;;;;5017479;28;20072;-82
2023/04/15 00:06:36;;;;;;;6.15;2.50;;;;;;;;;;5014012;28;20105;-81
2023/04/15 00:09:14;;;;;;;7.30;2.17;;;;;;;;;;5015469;28;20037;-82
2023/04/15 00:11:40;;;;;;;4.82;2.03;;;;;;;;;;5012804;28;20120;-81
2023/04/15 00:14:06;;;;;;;6.38;2.45;;;;;;;;;;5028208;28;20045;-81
2023/04/15 00:16:45;;;;;;;11.07;2.72;;;;;;;;;;5034323;28;20021;-81
2023/04/15 00:19:10;;;;;;;7.22;2.30;;;;;;;;;;5019713;28;20048;-82
2023/04/15 00:21:35;;;;;;;7.78;3.40;;;;;;;;;;5014097;28;20037;-81
2023/04/15 00:24:14;;;;;;;12.02;2.70;;;;;;;;;;5028142;28;20025;-82
2023/04/15 00:26:40;;;;;;;6.88;2.55;;;;;;;;;;5033754;28;20041;-81
2023/04/15 00:29:05;;;;;;;5.45;2.08;;;;;;;;;;5026534;28;20075;-81
2023/04/15 00:31:43;;;;;;;5.95;2.47;;;;;;;;;;5033744;28;20037;-81
2023/04/15 00:34:09;;;;;;;6.25;2.00;;;;;;;;;;5015188;28;20107;-82
2023/04/15 00:36:35;;;;;;;7.00;2.45;;;;;;;;;;5012653;28;20486;-82
2023/04/15 00:39:15;;;;;;;5.50;2.30;;;;;;;;;;5029630;28;20091;-81
2023/04/15 00:41:40;;;;;;;5.13;2.35;;;;;;;;;;5033402;28;20072;-81
2023/04/15 00:44:06;;;;;;;5.05;2.00;;;;;;;;;;5016064;28;20119;-82
2023/04/15 00:46:44;;;;;;;5.40;2.22;;;;;;;;;;5012501;28;20030;-82
2023/04/15 00:49:10;;;;;;;5.30;2.08;;;;;;;;;;5014458;28;20612;-82
2023/04/15 00:51:36;;;;;;;7.10;2.08;;;;;;;;;;5028718;28;20096;-82
2023/04/15 00:54:15;;;;;;;6.68;2.00;;;;;;;;;;5031772;28;20048;-82
2023/04/15 00:56:41;;;;;;;4.22;1.63;;;;;;;;;;5030603;28;20046;-82
2023/04/15 00:59:07;;;;;;;10.02;2.00;;;;;;;;;;5025535;28;20385;-81
2023/04/15 01:01:45;;;;;;;3.90;1.73;;;;;;;;;;5033032;28;20556;-81
2023/04/15 01:04:11;;;;;;;13.85;2.17;;;;;;;;;;5028552;28;20427;-81
2023/04/15 01:06:37;;;;;;;3.67;1.88;;;;;;;;;;5031884;28;20036;-82
2023/04/15 01:09:15;;;;;;;4.35;2.00;;;;;;;;;;5031505;28;20041;-82
2023/04/15 01:11:41;;;;;;;5.20;1.90;;;;;;;;;;5030829;28;20057;-81
2023/04/15 01:14:08;;;;;;;4.60;1.92;;;;;;;;;;5030055;28;20443;-81
2023/04/15 01:16:46;;;;;;;8.20;2.40;;;;;;;;;;5032156;28;20039;-81
2023/04/15 01:19:13;;;;;;;5.57;2.50;;;;;;;;;;5016989;28;20516;-81
2023/04/15 01:21:39;;;;;;;7.10;2.40;;;;;;;;;;5011666;28;20033;-80
2023/04/15 01:24:18;;;;;;;6.60;2.40;;;;;;;;;;5027626;28;20061;-82
2023/04/15 01:26:45;;;;;;;5.70;2.03;;;;;;;;;;5032004;28;20053;-80
2023/04/15 01:29:11;;;;;;;6.97;2.50;;;;;;;;;;5019222;28;20056;-82
2023/04/15 01:31:59;;;;;;;6.00;2.38;;;;;;;;;;5013477;28;20069;-81
2023/04/15 01:34:25;;;;;;;7.72;2.88;;;;;;;;;;5012161;28;20050;-82
2023/04/15 01:36:57;;;;;;;8.75;2.78;;;;;;;;;;5011717;28;20034;-80
2023/04/15 01:39:28;;;;;;;8.45;2.45;;;;;;;;;;5011856;28;20037;-81
2023/04/15 01:41:54;;;;;;;7.28;2.97;;;;;;;;;;5013012;28;20053;-79
2023/04/15 01:44:26;;;;;;;7.00;2.83;;;;;;;;;;5030821;28;20037;-81
2023/04/15 01:46:59;;;;;;;11.25;2.83;;;;;;;;;;5024649;28;20033;-81
2023/04/15 01:49:24;;;;;;;7.70;2.67;;;;;;;;;;5014330;28;20042;-81
2023/04/15 01:51:57;;;;;;;8.35;2.25;;;;;;;;;;5020647;28;20061;-80
2023/04/15 01:54:28;;;;;;;3.60;1.92;;;;;;;;;;5031365;28;20091;-81
2023/04/15 01:56:55;;;;;;;6.18;2.55;;;;;;;;;;5023624;28;20109;-80
2023/04/15 01:59:28;;;;;;;9.45;2.65;;;;;;;;;;5027607;28;20478;-81
2023/04/15 02:02:00;;;;;;;13.82;3.25;;;;;;;;;;5034465;28;20053;-82
2023/04/15 02:04:25;;;;;;;6.68;2.80;;;;;;;;;;5021391;28;20045;-81
2023/04/15 02:06:57;;;;;;;17.63;3.00;;;;;;;;;;5016375;28;20117;-80
2023/04/15 02:09:29;;;;;;;5.88;2.90;;;;;;;;;;5017520;28;20049;-82
2023/04/15 02:11:54;;;;;;;5.97;2.45;;;;;;;;;;5014939;28;20466;-81
2023/04/15 02:14:26;;;;;;;8.68;2.70;;;;;;;;;;5017499;28;20120;-81
2023/04/15 02:17:05;;;;;;;10.48;2.38;;;;;;;;;;5026515;28;20209;-82
2023/04/15 02:19:38;;;;;;;5.60;2.17;;;;;;;;;;5029449;28;20461;-82
2023/04/15 02:22:14;;;;;;;8.57;2.67;;;;;;;;;;5028449;28;20099;-82
2023/04/15 02:24:46;;;;;;;10.18;2.92;;;;;;;;;;5034294;28;20033;-82
2023/04/15 02:27:21;;;;;;;7.10;2.40;;;;;;;;;;5022627;28;20042;-81
2023/04/15 02:29:54;;;;;;;16.60;2.60;;;;;;;;;;5019412;28;20100;-81
2023/04/15 02:32:22;;;;;;;5.57;2.25;;;;;;;;;;5015702;28;20573;-81
2023/04/15 02:34:53;;;;;;;5.65;2.47;;;;;;;;;;4996615;28;20042;-81
2023/04/15 02:37:27;;;;;;;9.68;2.03;;;;;;;;;;4996655;28;20042;-81
2023/04/15 02:39:52;;;;;;;6.82;2.55;;;;;;;;;;5035035;28;20083;-82
2023/04/15 02:42:27;;;;;;;5.25;2.50;;;;;;;;;;5023437;28;20076;-80
2023/04/15 02:44:59;;;;;;;6.93;2.42;;;;;;;;;;5034706;28;20389;-80
2023/04/15 02:47:24;;;;;;;7.75;2.17;;;;;;;;;;5034631;28;20116;-80
2023/04/15 02:49:59;;;;;;;5.07;2.00;;;;;;;;;;5028382;28;20118;-80
2023/04/15 02:52:31;;;;;;;4.55;1.80;;;;;;;;;;5015859;28;20179;-81
2023/04/15 02:55:04;;;;;;;6.15;2.03;;;;;;;;;;5011033;28;20053;-81
2023/04/15 02:57:29;;;;;;;5.30;1.63;;;;;;;;;;5039905;28;20030;-81
2023/04/15 03:00:03;;;;;;;8.50;2.25;;;;;;;;;;5018528;28;20044;-82
2023/04/15 03:02:40;;;;;;;3.58;2.00;;;;;;;;;;5024315;28;20124;-81
2023/04/15 03:05:13;;;;;;;6.72;2.40;;;;;;;;;;5034540;28;20120;-81
2023/04/15 03:07:41;;;;;;;9.68;2.13;;;;;;;;;;5023106;28;20502;-80
2023/04/15 03:10:14;;;;;;;5.63;2.22;;;;;;;;;;5013053;28;20038;-81
2023/04/15 03:12:46;;;;;;;2.60;1.70;;;;;;;;;;5024572;28;20056;-81
2023/04/15 03:15:12;;;;;;;2.90;1.45;;;;;;;;;;5033811;28;20041;-82
2023/04/15 03:17:43;;;;;;;7.57;2.30;;;;;;;;;;5023344;28;20397;-81
2023/04/15 03:20:16;;;;;;;4.28;1.90;;;;;;;;;;5014982;28;20125;-82
2023/04/15 03:22:41;;;;;;;3.20;2.13;;;;;;;;;;5015683;28;20404;-82
2023/04/15 03:25:13;;;;;;;4.78;1.67;;;;;;;;;;5014993;28;20128;-82
2023/04/15 03:27:46;;;;;;;4.65;1.63;;;;;;;;;;5023642;28;20037;-83
2023/04/15 03:30:11;;;;;;;6.60;2.00;;;;;;;;;;5016104;28;20034;-82
2023/04/15 03:32:43;;;;;;;6.35;2.05;;;;;;;;;;5016979;28;20188;-82
2023/04/15 03:35:16;;;;;;;3.58;2.00;;;;;;;;;;5034276;28;20551;-82
2023/04/15 03:37:41;;;;;;;8.55;1.90;;;;;;;;;;5023477;28;20045;-82
2023/04/15 03:40:13;;;;;;;6.30;1.60;;;;;;;;;;5014639;28;20104;-82
2023/04/15 03:42:46;;;;;;;7.07;1.73;;;;;;;;;;5021171;28;20034;-81
2023/04/15 03:45:11;;;;;;;2.88;1.25;;;;;;;;;;5014925;28;20056;-82
2023/04/15 03:47:42;;;;;;;4.35;1.83;;;;;;;;;;5027672;28;20521;-81
2023/04/15 03:50:15;;;;;;;5.15;1.52;;;;;;;;;;5020643;28;20068;-82
2023/04/15 03:52:40;;;;;;;7.47;1.33;;;;;;;;;;5032604;28;20087;-82
2023/04/15 03:55:13;;;;;;;6.55;1.80;;;;;;;;;;5016509;28;20033;-82
2023/04/15 03:57:45;;;;;;;2.63;1.37;;;;;;;;;;5025474;28;20111;-82
2023/04/15 04:00:10;;;;;;;3.33;1.65;;;;;;;;;;5032212;28;20044;-82
2023/04/15 04:02:43;;;;;;;3.85;1.10;;;;;;;;;;5031002;28;20037;-82
2023/04/15 04:05:15;;;;;;;10.70;1.88;;;;;;;;;;4994648;28;20042;-81
2023/04/15 04:07:40;;;;;;;4.55;1.70;;;;;;;;;;5010732;28;20045;-82
2023/04/15 04:10:12;;;;;;;3.17;1.45;;;;;;;;;;5014187;28;20109;-82
2023/04/15 04:12:45;;;;;;;3.00;1.60;;;;;;;;;;5024936;28;20114;-82
2023/04/15 04:15:11;;;;;;;2.85;1.55;;;;;;;;;;5034007;28;20045;-82
2023/04/15 04:17:42;;;;;;;3.33;1.17;;;;;;;;;;5031932;28;20033;-82
2023/04/15 04:20:15;;;;;;;2.50;1.52;;;;;;;;;;5024926;28;20037;-82
2023/04/15 04:22:40;;;;;;;2.92;1.30;;;;;;;;;;5026332;28;20045;-82
2023/04/15 04:25:13;;;;;;;3.97;1.58;;;;;;;;;;5033729;28;20029;-82
2023/04/15 04:27:46;;;;;;;4.17;1.60;;;;;;;;;;5023699;28;20079;-82
2023/04/15 04:30:11;;;;;;;4.47;1.67;;;;;;;;;;5014484;28;20441;-81
2023/04/15 04:32:44;;;;;;;2.42;1.23;;;;;;;;;;5031962;28;20092;-81
2023/04/15 04:35:16;;;;;;;1.67;1.00;;;;;;;;;;5033848;28;20077;-81
2023/04/15 04:37:41;;;;;;;2.58;1.30;;;;;;;;;;5025799;28;20041;-82
2023/04/15 04:40:13;;;;;;;2.95;1.60;;;;;;;;;;5033198;28;20378;-82
2023/04/15 04:42:46;;;;;;;2.50;1.23;;;;;;;;;;5021775;28;20092;-82
2023/04/15 04:45:12;;;;;;;4.63;1.27;;;;;;;;;;5012627;28;20136;-81
2023/04/15 04:47:43;;;;;;;2.22;1.40;;;;;;;;;;5023389;28;20112;-81
2023/04/15 04:50:16;;;;;;;3.90;1.52;;;;;;;;;;5024707;28;20034;-82
2023/04/15 04:52:41;;;;;;;1.90;1.10;;;;;;;;;;5021853;28;20046;-81
2023/04/15 04:55:13;;;;;;;5.47;1.50;;;;;;;;;;5012371;28;20036;-81
2023/04/15 04:57:46;;;;;;;2.80;1.20;;;;;;;;;;5019677;28;20045;-81
2023/04/15 05:00:11;;;;;;;2.70;1.30;;;;;;;;;;5031560;28;20044;-81
2023/04/15 05:02:43;;;;;;;4.00;1.20;;;;;;;;;;5023238;28;20033;-81
2023/04/15 05:05:16;;;;;;;3.38;1.80;;;;;;;;;;5013174;28;20124;-80
2023/04/15 05:07:41;;;;;;;2.70;1.50;;;;;;;;;;5036533;28;20064;-80
2023/04/15 05:10:14;;;;;;;1.42;0.98;;;;;;;;;;5013181;28;20481;-80
2023/04/15 05:12:46;;;;;;;6.10;1.13;;;;;;;;;;5019693;28;20054;-81
2023/04/15 05:15:11;;;;;;;9.65;1.50;;;;;;;;;;5013484;28;20048;-80
2023/04/15 05:17:43;;;;;;;3.83;1.30;;;;;;;;;;5021457;28;20038;-81
2023/04/15 05:20:16;;;;;;;1.77;0.90;;;;;;;;;;5013222;28;20100;-81
2023/04/15 05:22:41;;;;;;;2.95;1.50;;;;;;;;;;5014160;28;20387;-81
2023/04/15 05:25:13;;;;;;;2.50;1.10;;;;;;;;;;5013271;28;20034;-80
2023/04/15 05:27:46;;;;;;;7.60;1.98;;;;;;;;;;5020333;28;20095;-81
2023/04/15 05:30:11;;;;;;;3.45;1.38;;;;;;;;;;5031281;28;20129;-81
2023/04/15 05:32:43;;;;;;;3.78;1.45;;;;;;;;;;5025180;28;20116;-81
2023/04/15 05:35:16;;;;;;;5.65;1.20;;;;;;;;;;5036433;28;20095;-81
2023/04/15 05:37:41;;;;;;;3.40;2.25;;;;;;;;;;5033906;28;20389;-81
2023/04/15 05:40:14;;;;;;;2.05;0.93;;;;;;;;;;5016624;28;20037;-81
2023/04/15 05:42:46;;;;;;;8.98;1.20;;;;;;;;;;5021190;28;20116;-81
2023/04/15 05:45:11;;;;;;;11.80;1.38;;;;;;;;;;5016998;28;20046;-81
2023/04/15 05:47:43;;;;;;;2.03;1.45;;;;;;;;;;5018048;28;20090;-81
2023/04/15 05:50:16;;;;;;;5.00;1.30;;;;;;;;;;5015724;28;20087;-81
2023/04/15 05:52:41;;;;;;;5.35;1.20;;;;;;;;;;5023144;28;20046;-81
2023/04/15 05:55:13;;;;;;;3.67;1.48;;;;;;;;;;5035400;28;20393;-81
2023/04/15 05:57:46;;;;;;;2.70;1.23;;;;;;;;;;5030781;28;20196;-81
2023/04/15 06:00:12;;;;;;;2.70;1.17;;;;;;;;;;5019168;28;20080;-81
2023/04/15 06:02:44;;;;;;;1.50;0.90;;;;;;;;;;5034745;28;20065;-82
2023/04/15 06:05:16;;;;;;;2.20;0.95;;;;;;;;;;5012029;28;20407;-81
2023/04/15 06:07:42;;;;;;;2.60;1.20;;;;;;;;;;5001458;28;20433;-81
2023/04/15 06:10:14;;;;;;;3.50;1.15;;;;;;;;;;5036514;28;20040;-82
2023/04/15 06:12:47;;;;;;;105.65;6.97;;;;;;;;;;5029824;28;20188;-81
2023/04/15 06:15:12;;;;;;;52.30;3.10;;;;;;;;;;5036133;28;20095;-81
2023/04/15 06:17:45;;;;;;;346.63;16.80;;;;;;;;;;5031449;28;20079;-81
2023/04/15 06:20:17;;;;;;;537.45;26.60;;;;;;;;;;5016086;28;20049;-82
2023/04/15 06:22:42;;;;;;;958.92;42.13;;;;;;;;;;5020590;28;20060;-83
2023/04/15 06:25:14;;;;;;;1865.97;91.63;;;;;;;;;;5027832;28;20481;-83
2023/04/15 06:27:47;;;;;;;1999.90;96.65;;;;;;;;;;5017281;28;20485;-83
2023/04/15 06:30:12;;;;;;;1999.90;179.90;;;;;;;;;;5025656;28;20397;-84
2023/04/15 06:32:45;;;;;;;1491.13;64.15;;;;;;;;;;5024440;28;20041;-83
2023/04/15 06:35:17;;;;;;;1994.10;97.97;;;;;;;;;;5015025;28;20049;-83
2023/04/15 06:37:42;;;;;;;871.63;42.53;;;;;;;;;;5034154;28;20037;-83
2023/04/15 06:40:14;;;;;;;838.67;38.63;;;;;;;;;;5035247;28;20048;-83
2023/04/15 06:42:47;;;;;;;1585.72;78.25;;;;;;;;;;5034103;28;20037;-84
2023/04/15 06:45:12;;;;;;;908.67;41.38;;;;;;;;;;5034990;28;20046;-83
2023/04/15 06:47:43;;;;;;;1012.00;46.15;;;;;;;;;;5033859;28;20033;-83
2023/04/15 06:50:16;;;;;;;1453.57;67.07;;;;;;;;;;5035436;28;20175;-83
2023/04/15 06:52:41;;;;;;;1999.90;134.40;;;;;;;;;;5033801;28;20049;-83
2023/04/15 06:55:13;;;;;;;1028.95;49.65;;;;;;;;;;5035319;28;20037;-82
2023/04/15 06:57:46;;;;;;;1683.82;84.70;;;;;;;;;;5033755;28;20115;-83
2023/04/15 07:00:11;;;;;;;1674.75;90.68;;;;;;;;;;5016663;28;20045;-83
2023/04/15 07:02:43;;;;;;;297.35;17.20;;;;;;;;;;5019010;28;20040;-83
2023/04/15 07:05:16;;;;;;;35.45;5.13;;;;;;;;;;5035249;28;20091;-83
2023/04/15 07:07:41;;;;;;;6.15;2.55;;;;;;;;;;5030725;28;20042;-83
2023/04/15 07:10:14;;;;;;;105.05;6.97;;;;;;;;;;5015351;28;20044;-83
2023/04/15 07:12:47;;;;;;;7.30;2.22;;;;;;;;;;5017436;28;20053;-83
2023/04/15 07:15:12;;;;;;;7.67;3.13;;;;;;;;;;5045737;28;20052;-83
2023/04/15 07:17:45;;;;;;;3.92;2.28;;;;;;;;;;5031799;28;20045;-83
2023/04/15 07:20:17;;;;;;;5.35;2.22;;;;;;;;;;5027820;28;20149;-83
2023/04/15 07:22:43;;;;;;;3.90;2.10;;;;;;;;;;5015118;28;20042;-83
2023/04/15 07:25:14;;;;;;;4.13;1.73;;;;;;;;;;5014870;28;20113;-83
2023/04/15 07:27:47;;;;;;;4.53;1.50;;;;;;;;;;5015043;28;20042;-83
2023/04/15 07:30:12;;;;;;;2.95;1.20;;;;;;;;;;5014947;28;20046;-83
2023/04/15 07:32:45;;;;;;;3.15;1.55;;;;;;;;;;5014724;28;20038;-83
2023/04/15 07:35:19;;;;;;;2.83;1.42;;;;;;;;;;5013628;28;20552;-84
2023/04/15 07:37:51;;;;;;;12.10;6.07;;;;;;;;;;5014489;28;20402;-84
2023/04/15 07:40:24;;;;;;;9.75;6.95;;;;;;;;;;5014666;28;20041;-84
2023/04/15 07:42:49;;;;;;;4.65;2.30;;;;;;;;;;5014802;28;20052;-84
2023/04/15 07:45:21;;;;;;;3.97;1.98;;;;;;;;;;5013259;28;20042;-84
2023/04/15 07:47:55;;;;;;;3.93;2.07;;;;;;;;;;5014839;28;20132;-84
2023/04/15 07:50:21;;;;;;;5.22;2.53;;;;;;;;;;5014929;28;20282;-84
2023/04/15 07:52:55;;;;;;;8.23;1.88;;;;;;;;;;5020417;28;20485;-85
2023/04/15 07:55:27;;;;;;;3.25;1.60;;;;;;;;;;5019508;28;20482;-84
2023/04/15 07:57:52;;;;;;;5.90;1.40;;;;;;;;;;5022701;28;20044;-85
2023/04/15 08:00:25;;;;;;;4.10;1.80;;;;;;;;;;5016673;28;20116;-84
2023/04/15 08:02:58;;;;;;;;;;;;;;;;;;5014905;28;20046;-84
2023/04/15 08:05:24;;;;;;;5.00;1.67;;;;;;;;;;5014808;28;20316;-85
2023/04/15 08:07:57;;;;;;;5.85;1.77;;;;;;;;;;5014362;28;20041;-85
2023/04/15 08:10:29;;;;;;;;;;;;;;;;;;5014747;28;20042;-86
2023/04/15 08:12:55;;;;;;;5.38;1.30;;;;;;;;;;5012940;28;19917;-81
2023/04/15 08:15:27;;;;;;;4.28;1.50;;;;;;;;;;5011241;28;20034;-84
2023/04/15 08:18:01;;;;;;;3.63;1.30;;;;;;;;;;5012024;28;20042;-84
2023/04/15 08:20:34;;;;;;;3.70;1.20;;;;;;;;;;5012761;28;20042;-85
2023/04/15 08:23:06;;;;;;;4.30;1.20;;;;;;;;;;5011061;28;20038;-84
2023/04/15 08:25:31;;;;;;;5.32;1.40;;;;;;;;;;5013124;28;20046;-84
2023/04/15 08:28:05;;;;;;;4.80;1.30;;;;;;;;;;5013431;28;20394;-83
2023/04/15 08:30:38;;;;;;;4.63;1.20;;;;;;;;;;5012564;28;20044;-83
2023/04/15 08:33:03;;;;;;;6.32;1.45;;;;;;;;;;5018145;28;20045;-84
2023/04/15 08:35:36;;;;;;;3.92;1.48;;;;;;;;;;5013937;28;20029;-84
2023/04/15 08:38:08;;;;;;;4.85;1.20;;;;;;;;;;5015688;28;20052;-81
2023/04/15 08:40:47;;;;;;;6.90;1.30;;;;;;;;;;5024964;28;20043;-84
2023/04/15 08:43:25;;;;;;;4.82;1.50;;;;;;;;;;5017904;28;20089;-83
2023/04/15 08:45:59;;;;;;;7.00;1.50;;;;;;;;;;5042694;28;20125;-84
2023/04/15 08:48:37;;;;;;;5.68;1.15;;;;;;;;;;5012392;28;20038;-85
2023/04/15 08:51:10;;;;;;;4.72;1.40;;;;;;;;;;5013557;28;20033;-84
2023/04/15 08:53:43;;;;;;;7.35;1.55;;;;;;;;;;5013100;28;20060;-85
2023/04/15 08:56:09;;;;;;;4.60;1.58;;;;;;;;;;5013357;28;20123;-85
2023/04/15 08:58:41;;;;;;;6.15;1.42;;;;;;;;;;5028413;28;20077;-85
2023/04/15 09:01:14;;;;;;;5.15;1.20;;;;;;;;;;5013192;28;20116;-85
2023/04/15 09:03:41;;;;;;;4.03;1.50;;;;;;;;;;5013523;28;20042;-85
2023/04/15 09:06:12;;;;;;;4.10;1.33;;;;;;;;;;5013016;28;20521;-86
2023/04/15 09:08:45;;;;;;;5.70;1.63;;;;;;;;;;5014998;28;20095;-86
2023/04/15 09:11:11;;;;;;;3.75;1.23;;;;;;;;;;5017413;28;20084;-85
2023/04/15 09:13:42;;;;;;;3.92;1.30;;;;;;;;;;5015726;28;20453;-86
2023/04/15 09:16:15;;;;;;;3.08;1.20;;;;;;;;;;5017253;28;20100;-86
2023/04/15 09:18:40;;;;;;;3.72;1.48;;;;;;;;;;5015036;28;20046;-86
2023/04/15 09:21:22;;;;;;;7.97;1.65;;;;;;;;;;5016715;28;20096;-85
2023/04/15 09:24:00;;;;;;;5.07;1.40;;;;;;;;;;5014713;28;20080;-86
2023/04/15 09:26:42;;;;;;;3.35;1.20;;;;;;;;;;5016902;28;20038;-86
2023/04/15 09:29:17;;;;;;;3.63;1.50;;;;;;;;;;5031483;28;20092;-86
2023/04/15 09:31:42;;;;;;;3.75;1.73;;;;;;;;;;5017062;28;20042;-86
2023/04/15 09:34:14;;;;;;;6.07;1.90;;;;;;;;;;5021414;28;20354;-84
2023/04/15 09:36:47;;;;;;;7.55;2.22;;;;;;;;;;5023190;28;20442;-85
2023/04/15 09:39:13;;;;;;;;;;;;;;;;;;5025199;28;20103;-85
2023/04/15 09:41:46;;;;;;;4.80;1.45;;;;;;;;;;5017658;28;19917;-87
2023/04/15 09:44:25;;;;;;;4.20;1.50;;;;;;;;;;5013882;28;20050;-86
2023/04/15 09:46:56;;;;;;;4.93;1.70;;;;;;;;;;5017355;28;20034;-85
2023/04/15 09:49:29;;;;;;;3.45;1.70;;;;;;;;;;5016695;28;20076;-86
2023/04/15 09:52:08;;;;;;;5.40;1.38;;;;;;;;;;5016256;28;20478;-86
2023/04/15 09:54:40;;;;;;;3.90;1.50;;;;;;;;;;5021399;28;20497;-86
2023/04/15 09:57:07;;;;;;;4.53;1.73;;;;;;;;;;5019556;28;20069;-85
2023/04/15 09:59:40;;;;;;;4.00;1.38;;;;;;;;;;5017262;28;20045;-84
2023/04/15 10:02:12;;;;;;;4.53;1.85;;;;;;;;;;5017739;28;20053;-86
2023/04/15 10:04:40;;;;;;;4.57;1.88;;;;;;;;;;5011736;28;20371;-85
2023/04/15 10:07:14;;;;;;;5.35;1.60;;;;;;;;;;5016030;28;20045;-86
2023/04/15 10:09:48;;;;;;;4.25;1.48;;;;;;;;;;5016323;28;20038;-85
2023/04/15 10:12:24;;;;;;;4.32;1.40;;;;;;;;;;5006001;28;20050;-84
2023/04/15 10:15:06;;;;;;;3.72;1.50;;;;;;;;;;4999566;28;20455;-86
2023/04/15 10:17:39;;;;;;;3.47;1.48;;;;;;;;;;5015845;28;20124;-85
2023/04/15 10:20:13;;;;;;;2.95;1.30;;;;;;;;;;5014289;28;20180;-85
2023/04/15 10:22:40;;;;;;;7.10;1.60;;;;;;;;;;4998119;28;20059;-85
2023/04/15 10:25:12;;;;;;;4.40;1.55;;;;;;;;;;5047785;28;20108;-84
2023/04/15 10:27:44;;;;;;;5.45;1.35;;;;;;;;;;5014607;28;20046;-85
2023/04/15 10:30:10;;;;;;;5.67;1.47;;;;;;;;;;5015800;28;20096;-82
2023/04/15 10:32:42;;;;;;;4.25;1.40;;;;;;;;;;5015614;28;20619;-84
2023/04/15 10:35:15;;;;;;;4.30;1.20;;;;;;;;;;5030408;28;20100;-84
2023/04/15 10:37:41;;;;;;;3.40;1.40;;;;;;;;;;5028633;28;20051;-84
2023/04/15 10:40:38;;;;;;;3.63;1.30;;;;;;;;;;5015693;28;20041;-83
2023/04/15 10:43:04;;;;;;;3.60;1.42;;;;;;;;;;5015572;28;20112;-81
2023/04/15 10:45:50;;;;;;;3.65;1.30;;;;;;;;;;5016913;28;20466;-83
2023/04/15 10:48:15;;;;;;;3.13;1.30;;;;;;;;;;5021678;28;20435;-84
2023/04/15 10:51:08;;;;;;;4.68;1.80;;;;;;;;;;5015998;28;20030;-84
2023/04/15 10:53:36;;;;;;;2.80;1.13;;;;;;;;;;5012935;28;20072;-83
2023/04/15 10:56:15;;;;;;;5.25;1.60;;;;;;;;;;5015180;28;20124;-83
2023/04/15 10:58:42;;;;;;;7.22;1.35;;;;;;;;;;5016237;28;20092;-83
2023/04/15 11:01:08;;;;;;;2.55;1.20;;;;;;;;;;5030567;28;20034;-82
2023/04/15 11:03:50;;;;;;;4.78;1.48;;;;;;;;;;5019635;28;20465;-83
2023/04/15 11:06:15;;;;;;;4.55;1.48;;;;;;;;;;5018579;28;20560;-82
2023/04/15 11:09:08;;;;;;;5.43;1.40;;;;;;;;;;5025851;28;20033;-83
2023/04/15 11:12:08;;;;;;;1.88;1.25;;;;;;;;;;5021574;28;20041;-82
2023/04/15 11:14:47;;;;;;;5.63;1.50;;;;;;;;;;4967452;28;20075;-83
2023/04/15 11:17:12;;;;;;;7.40;1.60;;;;;;;;;;4975985;28;20043;-82
2023/04/15 11:19:38;;;;;;;4.78;1.48;;;;;;;;;;4984487;28;20427;-82
2023/04/15 11:22:16;;;;;;;3.15;1.40;;;;;;;;;;4981350;28;20044;-82
2023/04/15 11:24:49;;;;;;;5.00;1.55;;;;;;;;;;4999806;28;20105;-83
2023/04/15 11:27:28;;;;;;;6.10;1.58;;;;;;;;;;4974287;28;20097;-82
2023/04/15 11:29:54;;;;;;;3.28;1.35;;;;;;;;;;5009716;28;20030;-83
2023/04/15 11:32:20;;;;;;;6.72;1.50;;;;;;;;;;4977916;28;20053;-81
2023/04/15 11:34:58;;;;;;;4.00;1.30;;;;;;;;;;4978578;28;20117;-82
2023/04/15 11:37:28;;;;;;;4.10;1.45;;;;;;;;;;4976453;28;20113;-81
2023/04/15 11:40:09;;;;;;;3.75;1.52;;;;;;;;;;4978827;28;20106;-82
2023/04/15 11:42:34;;;;;;;3.88;1.45;;;;;;;;;;4975378;28;20038;-81
2023/04/15 11:45:22;;;;;;;4.80;1.73;;;;;;;;;;4976512;28;20030;-81
2023/04/15 11:47:48;;;;;;;4.35;1.50;;;;;;;;;;4972853;28;20043;-82
2023/04/15 11:50:34;;;;;;;6.50;1.50;;;;;;;;;;4974917;28;20031;-81
2023/04/15 11:53:01;;;;;;;3.08;1.38;;;;;;;;;;4971632;28;20364;-81
2023/04/15 11:55:52;;;;;;;3.47;1.30;;;;;;;;;;5005613;28;20038;-81
2023/04/15 11:58:21;;;;;;;2.33;1.30;;;;;;;;;;4974741;28;20399;-80
2023/04/15 12:01:04;;;;;;;3.65;1.50;;;;;;;;;;4976730;28;20060;-81
2023/04/15 12:03:31;;;;;;;3.80;1.30;;;;;;;;;;4975524;28;20046;-82
2023/04/15 12:06:15;;;;;;;3.63;1.48;;;;;;;;;;5006126;28;20117;-81
2023/04/15 12:08:57;;;;;;;5.43;1.67;;;;;;;;;;4979170;28;20089;-82
2023/04/15 12:11:56;;;;;;;5.05;1.50;;;;;;;;;;4963700;28;20035;-80
2023/04/15 12:14:28;;;;;;;2.33;1.20;;;;;;;;;;5016189;28;20061;-81
2023/04/15 12:17:12;;;;;;;4.47;1.52;;;;;;;;;;5009497;28;20030;-81
2023/04/15 12:19:44;;;;;;;3.72;1.63;;;;;;;;;;5016085;28;20041;-80
2023/04/15 12:22:23;;;;;;;5.53;1.35;;;;;;;;;;5014262;28;20042;-80
2023/04/15 12:24:55;;;;;;;4.97;1.20;;;;;;;;;;5014335;28;20049;-81
2023/04/15 12:27:35;;;;;;;2.20;1.23;;;;;;;;;;5014773;28;20642;-81
2023/04/15 12:30:04;;;;;;;3.55;1.33;;;;;;;;;;5018294;28;20042;-80
2023/04/15 12:32:43;;;;;;;4.85;1.58;;;;;;;;;;5016388;28;20105;-81
2023/04/15 12:35:08;;;;;;;1.90;1.00;;;;;;;;;;5006077;28;20047;-81
2023/04/15 12:37:33;;;;;;;3.97;1.38;;;;;;;;;;4998458;28;20037;-80
2023/04/15 12:40:14;;;;;;;5.00;1.63;;;;;;;;;;5010224;28;20048;-80
2023/04/15 12:42:39;;;;;;;4.20;1.45;;;;;;;;;;5041938;28;20045;-80
2023/04/15 12:45:12;;;;;;;3.00;1.30;;;;;;;;;;5013477;28;20385;-80
2023/04/15 12:47:44;;;;;;;5.10;1.50;;;;;;;;;;5011454;28;20441;-81
2023/04/15 12:50:09;;;;;;;2.90;1.13;;;;;;;;;;5010258;28;20052;-81
2023/04/15 12:52:41;;;;;;;3.13;1.10;;;;;;;;;;5011702;28;20030;-80
2023/04/15 12:55:12;;;;;;;2.85;1.35;;;;;;;;;;5010460;28;20046;-81
2023/04/15 12:57:38;;;;;;;3.17;1.23;;;;;;;;;;5013736;28;20544;-81
2023/04/15 13:00:11;;;;;;;2.13;1.15;;;;;;;;;;5011013;28;20034;-77
2023/04/15 13:02:43;;;;;;;3.78;1.30;;;;;;;;;;5011894;28;20034;-76
2023/04/15 13:05:08;;;;;;;2.13;1.20;;;;;;;;;;5014729;28;20042;-80
2023/04/15 13:07:41;;;;;;;3.80;1.20;;;;;;;;;;5008688;28;20076;-80
2023/04/15 13:10:13;;;;;;;9.97;1.63;;;;;;;;;;5012264;28;20042;-80
2023/04/15 13:12:38;;;;;;;3.08;1.10;;;;;;;;;;5011518;28;20413;-81
2023/04/15 13:15:10;;;;;;;4.38;1.35;;;;;;;;;;5012499;28;20088;-80
2023/04/15 13:17:43;;;;;;;7.05;1.35;;;;;;;;;;5013342;28;20034;-81
2023/04/15 13:20:09;;;;;;;3.13;1.10;;;;;;;;;;5012897;28;20165;-80
2023/04/15 13:22:41;;;;;;;2.40;1.20;;;;;;;;;;5012610;28;20478;-81
2023/04/15 13:25:14;;;;;;;4.82;1.45;;;;;;;;;;5013040;28;20064;-80
2023/04/15 13:27:39;;;;;;;5.72;2.03;;;;;;;;;;5016352;28;20038;-81
2023/04/15 13:30:12;;;;;;;2.90;1.10;;;;;;;;;;5015370;28;20038;-80
2023/04/15 13:32:44;;;;;;;2.08;1.00;;;;;;;;;;5014132;28;20380;-81
2023/04/15 13:35:09;;;;;;;3.63;1.08;;;;;;;;;;5012127;28;20046;-81
2023/04/15 13:37:41;;;;;;;2.53;1.27;;;;;;;;;;5013029;28;20029;-81
2023/04/15 13:40:14;;;;;;;3.35;1.05;;;;;;;;;;5044711;28;20066;-81
2023/04/15 13:42:48;;;;;;;2.00;1.10;;;;;;;;;;5013972;28;20049;-81
2023/04/15 13:45:13;;;;;;;3.03;1.10;;;;;;;;;;5022660;28;20482;-81
2023/04/15 13:47:46;;;;;;;3.00;1.30;;;;;;;;;;5018422;28;20099;-81
2023/04/15 13:50:18;;;;;;;2.83;1.20;;;;;;;;;;5020830;28;20117;-80
2023/04/15 13:52:43;;;;;;;4.80;1.23;;;;;;;;;;5010788;28;20092;-81
2023/04/15 13:55:16;;;;;;;4.53;1.30;;;;;;;;;;5016333;28;20037;-81
2023/04/15 13:57:49;;;;;;;3.80;1.20;;;;;;;;;;5017720;28;20041;-81
2023/04/15 14:00:15;;;;;;;4.35;1.10;;;;;;;;;;5017114;28;20045;-81
2023/04/15 14:02:47;;;;;;;3.58;1.08;;;;;;;;;;5019689;28;20038;-81
2023/04/15 14:05:19;;;;;;;3.13;1.00;;;;;;;;;;5016172;28;20038;-80
2023/04/15 14:07:44;;;;;;;3.28;0.90;;;;;;;;;;5017271;28;20477;-81
2023/04/15 14:10:17;;;;;;;2.38;1.05;;;;;;;;;;5023717;28;20052;-80
2023/04/15 14:12:49;;;;;;;3.22;1.02;;;;;;;;;;5016347;28;20108;-81
2023/04/15 14:15:15;;;;;;;3.72;1.20;;;;;;;;;;5018169;28;20049;-80
2023/04/15 14:17:47;;;;;;;2.70;1.10;;;;;;;;;;5020865;28;20382;-79
2023/04/15 14:20:19;;;;;;;2.55;0.80;;;;;;;;;;5019659;28;20436;-78
2023/04/15 14:22:45;;;;;;;2.17;0.80;;;;;;;;;;5015826;28;20489;-80
2023/04/15 14:25:17;;;;;;;5.75;0.88;;;;;;;;;;5031101;28;20045;-80
2023/04/15 14:27:50;;;;;;;2.28;0.80;;;;;;;;;;5018732;28;20160;-80
2023/04/15 14:30:16;;;;;;;2.38;0.93;;;;;;;;;;5015947;28;20299;-81
2023/04/15 14:32:48;;;;;;;2.17;1.00;;;;;;;;;;5014061;28;20153;-80
2023/04/15 14:35:20;;;;;;;2.03;1.17;;;;;;;;;;5016675;28;20493;-81
2023/04/15 14:37:45;;;;;;;2.17;1.00;;;;;;;;;;5016938;28;20049;-80
2023/04/15 14:40:18;;;;;;;1.80;0.90;;;;;;;;;;5019476;28;20030;-78
2023/04/15 14:42:50;;;;;;;1.55;0.90;;;;;;;;;;5022932;28;20116;-80
2023/04/15 14:45:16;;;;;;;2.65;0.98;;;;;;;;;;5015354;28;20042;-80
2023/04/15 14:47:48;;;;;;;2.85;0.80;;;;;;;;;;5022812;28;20120;-81
2023/04/15 14:50:20;;;;;;;1.50;0.60;;;;;;;;;;5015156;28;20563;-80
2023/04/15 14:52:45;;;;;;;2.88;0.85;;;;;;;;;;5015756;28;20038;-80
2023/04/15 14:55:18;;;;;;;4.88;0.98;;;;;;;;;;5015335;28;20030;-80
2023/04/15 14:57:50;;;;;;;1.48;0.93;;;;;;;;;;5016771;28;20092;-80
2023/04/15 15:00:15;;;;;;;2.30;0.93;;;;;;;;;;5015005;28;20042;-80
2023/04/15 15:02:48;;;;;;;3.88;1.40;;;;;;;;;;5021442;28;20025;-79
2023/04/15 15:05:20;;;;;;;3.05;0.80;;;;;;;;;;5008462;28;20045;-80